Time;durP1;ratioP1;P1;durP2;ratioP2;P2;SDS_P1;SDS_P2;PMS_P1;PMS_P2;Temp;Humidity;BMP_temperature;BMP_pressure;BME280_temperature;BME280_humidity;BME280_pressure;Samples;Min_cycle;Max_cycle;Signal;HPM_P1;HPM_P2
2022/07/19 00:01:25;;;;;;;5.73;5.10;;;24.30;53.30;;;26.89;40.48;101880.19;5094695;28;20212;-59
2022/07/19 00:03:52;;;;;;;6.90;5.70;;;24.30;53.70;;;26.85;40.62;101890.69;5096665;28;20242;-59
2022/07/19 00:06:20;;;;;;;6.63;5.67;;;24.20;53.70;;;26.81;41.38;101884.16;5097344;28;20192;-59
2022/07/19 00:08:49;;;;;;;9.00;5.53;;;24.20;53.90;;;26.78;40.95;101891.97;5096697;28;20192;-58
2022/07/19 00:11:16;;;;;;;7.87;5.70;;;24.10;54.00;;;26.74;41.21;101888.91;5096277;28;20577;-58
2022/07/19 00:13:43;;;;;;;6.60;5.87;;;24.10;53.90;;;26.69;41.00;101886.16;5096442;28;20192;-59
2022/07/19 00:16:11;;;;;;;6.70;5.80;;;24.10;54.20;;;26.66;41.72;101881.25;5096556;28;20263;-58
2022/07/19 00:18:39;;;;;;;5.90;5.30;;;24.00;54.40;;;26.63;41.66;101881.75;5096530;28;20216;-56
2022/07/19 00:21:06;;;;;;;7.57;6.27;;;24.00;54.30;;;26.60;41.17;101871.44;5097303;28;20239;-58
2022/07/19 00:23:34;;;;;;;7.80;5.67;;;24.00;54.40;;;26.58;41.70;101878.16;5096542;28;20196;-59
2022/07/19 00:26:04;;;;;;;6.93;5.40;;;24.00;54.50;;;26.53;41.07;101870.81;5096343;28;20188;-56
2022/07/19 00:28:32;;;;;;;6.67;5.57;;;23.90;54.40;;;26.51;41.20;101872.16;5113742;27;20239;-58
2022/07/19 00:31:00;;;;;;;6.00;5.40;;;23.90;54.70;;;26.46;41.18;101870.19;5116045;28;20199;-58
2022/07/19 00:33:28;;;;;;;5.77;5.23;;;23.90;54.70;;;26.42;41.19;101868.25;5116679;28;20242;-58
2022/07/19 00:35:55;;;;;;;5.77;4.93;;;23.80;54.70;;;26.37;41.87;101877.13;5116625;28;20188;-57
2022/07/19 00:38:22;;;;;;;8.27;5.60;;;23.80;55.40;;;26.31;41.93;101872.75;5102201;28;20560;-58
2022/07/19 00:40:50;;;;;;;7.63;5.57;;;23.70;55.00;;;26.25;41.80;101873.72;5095478;28;20649;-57
2022/07/19 00:43:18;;;;;;;9.37;5.93;;;23.70;55.20;;;26.21;41.93;101869.91;5095836;28;20195;-58
2022/07/19 00:45:46;;;;;;;6.63;5.90;;;23.60;55.30;;;26.18;42.57;101873.09;5095858;28;20193;-59
2022/07/19 00:48:14;;;;;;;5.77;5.20;;;23.60;55.60;;;26.14;42.55;101869.28;5095523;28;20209;-58
2022/07/19 00:50:41;;;;;;;6.53;5.67;;;23.50;55.50;;;26.10;42.13;101870.81;5095462;28;20189;-57
2022/07/19 00:53:10;;;;;;;6.53;5.20;;;23.50;55.70;;;26.06;42.25;101865.06;5095662;28;20204;-61
2022/07/19 00:55:41;;;;;;;6.30;5.57;;;23.50;56.00;;;26.02;42.93;101874.75;5115938;27;20187;-59
2022/07/19 00:58:10;;;;;;;6.77;6.07;;;23.40;56.10;;;25.99;42.66;101869.03;5116365;28;20529;-59
2022/07/19 01:00:39;;;;;;;7.57;5.23;;;23.40;56.20;;;25.96;42.72;101870.31;5115724;28;20188;-59
2022/07/19 01:03:11;;;;;;;7.43;5.40;;;23.30;56.30;;;25.91;42.92;101869.47;5115895;28;20576;-58
2022/07/19 01:05:39;;;;;;;7.43;5.73;;;23.30;56.40;;;25.88;43.44;101867.25;5115952;28;20195;-59
2022/07/19 01:08:06;;;;;;;6.80;6.10;;;23.30;56.70;;;25.85;43.99;101865.88;5115776;28;20733;-59
2022/07/19 01:10:34;;;;;;;7.37;5.60;;;23.20;57.10;;;25.82;43.12;101870.91;5113860;28;20552;-59
2022/07/19 01:13:02;;;;;;;6.13;5.47;;;23.20;57.00;;;25.78;43.34;101869.78;5115611;28;20212;-59
2022/07/19 01:15:29;;;;;;;5.70;5.10;;;23.20;57.20;;;25.73;43.75;101864.31;5115734;28;20549;-58
2022/07/19 01:17:58;;;;;;;7.00;6.00;;;23.10;57.20;;;25.67;43.41;101865.31;5115583;28;20180;-59
2022/07/19 01:20:26;;;;;;;7.40;5.50;;;23.10;57.30;;;25.63;44.53;101859.59;5115341;28;20192;-58
2022/07/19 01:23:00;;;;;;;7.47;6.10;;;23.00;58.00;;;25.60;43.83;101864.66;5115815;28;20208;-59
2022/07/19 01:25:30;;;;;;;6.30;5.60;;;23.00;57.90;;;25.58;43.62;101861.41;5115596;28;20199;-58
2022/07/19 01:27:58;;;;;;;7.23;5.70;;;22.90;57.70;;;25.53;44.15;101859.44;5113890;28;20211;-59
2022/07/19 01:30:28;;;;;;;6.73;5.63;;;22.90;57.90;;;25.48;44.59;101862.84;5115209;28;20520;-56
2022/07/19 01:32:56;;;;;;;6.33;5.50;;;22.80;58.10;;;25.45;44.20;101871.47;5115359;28;20261;-57
2022/07/19 01:35:24;;;;;;;6.73;6.03;;;22.80;58.30;;;25.44;44.82;101864.41;5115301;28;20199;-59
2022/07/19 01:37:52;;;;;;;6.57;5.73;;;22.80;58.30;;;25.42;44.42;101866.53;5115027;28;20190;-58
2022/07/19 01:40:23;;;;;;;6.87;5.13;;;22.80;58.30;;;25.38;44.14;101868.06;5115053;28;20198;-59
2022/07/19 01:42:51;;;;;;;6.03;5.37;;;22.70;58.40;;;25.35;44.68;101860.47;5113278;28;20212;-58
2022/07/19 01:45:20;;;;;;;6.53;5.50;;;22.70;58.30;;;25.30;44.83;101852.28;5115075;28;20275;-59
2022/07/19 01:47:48;;;;;;;6.70;5.97;;;22.60;58.50;;;25.28;45.03;101859.00;5115081;28;20218;-58
2022/07/19 01:50:17;;;;;;;6.53;5.67;;;22.60;58.90;;;25.25;45.09;101863.00;5115084;28;20540;-59
2022/07/19 01:52:46;;;;;;;8.77;5.73;;;22.60;58.80;;;25.25;44.57;101863.00;5114320;28;20216;-59
2022/07/19 01:55:17;;;;;;;7.17;5.77;;;22.60;58.90;;;25.22;45.04;101863.47;5114998;28;20613;-59
2022/07/19 01:57:46;;;;;;;7.57;6.30;;;22.50;58.80;;;25.21;44.89;101863.72;5114839;28;20188;-59
2022/07/19 02:00:14;;;;;;;7.20;6.50;;;22.50;59.00;;;25.19;45.36;101869.38;5112828;28;20196;-59
2022/07/19 02:02:42;;;;;;;6.53;5.93;;;22.50;59.20;;;25.19;44.90;101861.28;5114346;28;20214;-59
2022/07/19 02:05:09;;;;;;;6.90;5.87;;;22.50;59.20;;;25.19;44.97;101857.75;5114440;28;20600;-58
2022/07/19 02:07:38;;;;;;;6.97;6.13;;;22.50;59.10;;;25.18;44.94;101862.31;5114425;28;20216;-58
2022/07/19 02:10:08;;;;;;;6.20;5.60;;;22.50;59.10;;;25.15;44.92;101856.63;5114357;28;20194;-55
2022/07/19 02:12:36;;;;;;;6.33;5.73;;;22.50;59.10;;;25.13;44.86;101864.09;5113786;28;20215;-58
2022/07/19 02:15:07;;;;;;;6.30;5.63;;;22.40;59.10;;;25.11;45.01;101864.38;5113758;28;20192;-59
2022/07/19 02:17:35;;;;;;;7.87;5.53;;;22.40;59.10;;;25.10;45.00;101865.44;5096713;28;20196;-58
2022/07/19 02:20:06;;;;;;;6.73;6.03;;;22.40;59.10;;;25.06;44.91;101864.28;5093947;28;20594;-59
2022/07/19 02:22:35;;;;;;;8.80;6.67;;;22.40;59.20;;;25.04;45.33;101869.09;5093186;28;20214;-59
2022/07/19 02:25:02;;;;;;;6.60;5.77;;;22.40;59.30;;;25.00;45.34;101864.44;5093225;28;20189;-57
2022/07/19 02:27:30;;;;;;;7.23;5.53;;;22.40;59.30;;;24.96;45.18;101860.59;5093548;28;20212;-58
2022/07/19 02:29:57;;;;;;;10.10;5.87;;;22.30;59.20;;;24.92;45.08;101867.50;5093539;28;20196;-59
2022/07/19 02:32:26;;;;;;;8.60;6.17;;;22.30;59.40;;;24.87;45.39;101860.16;5094040;28;20287;-58
2022/07/19 02:34:54;;;;;;;6.53;5.83;;;22.30;59.60;;;24.84;45.14;101860.66;5093495;28;20261;-58
2022/07/19 02:37:21;;;;;;;6.90;6.20;;;22.20;59.50;;;24.80;45.41;101859.47;5093293;28;20199;-58
2022/07/19 02:39:49;;;;;;;6.37;5.77;;;22.20;59.80;;;24.78;46.21;101866.97;5093481;28;20192;-59
2022/07/19 02:42:16;;;;;;;6.00;5.40;;;22.10;59.90;;;24.75;46.07;101864.72;5093293;28;20212;-59
2022/07/19 02:44:43;;;;;;;6.47;5.60;;;22.10;60.10;;;24.72;45.85;101857.16;5093475;28;20193;-59
2022/07/19 02:47:11;;;;;;;8.53;5.73;;;22.10;60.20;;;24.69;46.17;101860.31;5093522;28;20607;-59
2022/07/19 02:49:40;;;;;;;9.23;6.93;;;22.00;60.20;;;24.67;46.31;101859.75;5094642;28;20188;-58
2022/07/19 02:52:07;;;;;;;9.13;6.23;;;22.00;60.30;;;24.62;46.08;101862.34;5092875;28;20220;-57
2022/07/19 02:54:34;;;;;;;8.17;5.93;;;22.00;60.40;;;24.59;45.94;101857.41;5092997;28;20200;-59
2022/07/19 02:57:02;;;;;;;7.87;5.90;;;22.00;60.40;;;24.57;46.39;101867.63;5093039;28;20185;-59
2022/07/19 02:59:29;;;;;;;9.37;6.07;;;21.90;60.40;;;24.53;46.13;101867.28;5092942;28;20185;-59
2022/07/19 03:01:57;;;;;;;7.80;6.17;;;21.90;61.30;;;24.49;46.28;101865.28;5092284;28;20321;-59
2022/07/19 03:04:24;;;;;;;6.20;5.57;;;21.90;60.50;;;24.44;46.63;101863.31;5092979;28;20265;-59
2022/07/19 03:06:53;;;;;;;6.17;5.57;;;21.80;61.00;;;24.41;46.82;101871.06;5093800;28;20196;-59
2022/07/19 03:09:20;;;;;;;8.13;6.57;;;21.80;60.90;;;24.39;46.53;101870.50;5092689;28;20224;-59
2022/07/19 03:11:48;;;;;;;6.83;6.20;;;21.70;61.00;;;24.36;46.95;101868.28;5092365;28;20227;-58
2022/07/19 03:14:15;;;;;;;6.53;5.37;;;21.70;61.40;;;24.33;46.67;101869.56;5092829;28;20617;-59
2022/07/19 03:16:42;;;;;;;6.87;6.17;;;21.70;61.20;;;24.30;46.90;101875.41;5092863;28;20184;-59
2022/07/19 03:19:10;;;;;;;6.60;5.97;;;21.70;61.20;;;24.28;46.74;101871.31;5092877;28;20196;-59
2022/07/19 03:21:37;;;;;;;8.00;6.20;;;21.60;61.30;;;24.26;47.02;101876.13;5098047;28;20220;-59
2022/07/19 03:24:06;;;;;;;6.10;5.50;;;21.60;61.40;;;24.23;46.95;101877.41;5113210;28;20211;-59
2022/07/19 03:26:34;;;;;;;7.27;6.57;;;21.60;61.80;;;24.22;47.14;101870.41;5113067;28;20211;-58
2022/07/19 03:29:01;;;;;;;7.53;6.77;;;21.60;61.90;;;24.20;47.14;101870.63;5112714;28;20216;-58
2022/07/19 03:31:28;;;;;;;7.27;6.23;;;21.50;61.80;;;24.18;47.05;101867.34;5112819;28;20559;-58
2022/07/19 03:33:56;;;;;;;6.57;5.97;;;21.50;62.00;;;24.16;47.10;101877.53;5113143;28;20191;-59
2022/07/19 03:36:23;;;;;;;6.00;5.50;;;21.50;61.90;;;24.15;47.07;101875.09;5115504;28;20202;-58
2022/07/19 03:38:51;;;;;;;8.27;6.63;;;21.50;62.10;;;24.13;47.18;101875.31;5115313;28;20191;-58
2022/07/19 03:41:20;;;;;;;7.67;5.87;;;21.40;62.10;;;24.09;47.21;101868.78;5116744;28;20212;-59
2022/07/19 03:43:47;;;;;;;7.10;5.80;;;21.50;62.20;;;24.06;47.19;101871.94;5117263;28;20183;-59
2022/07/19 03:46:15;;;;;;;7.60;6.43;;;21.40;62.10;;;24.04;47.46;101871.31;5117009;28;20198;-59
2022/07/19 03:48:42;;;;;;;8.20;6.17;;;21.40;62.20;;;24.01;47.49;101871.78;5115719;28;20222;-58
2022/07/19 03:51:10;;;;;;;8.30;6.57;;;21.40;62.10;;;24.00;47.75;101872.03;5116507;27;20203;-58
2022/07/19 03:53:37;;;;;;;7.80;5.67;;;21.30;62.30;;;23.98;47.68;101863.38;5117351;28;20183;-59
2022/07/19 03:56:05;;;;;;;8.27;6.00;;;21.30;62.50;;;23.98;47.55;101872.28;5115617;28;20202;-59
2022/07/19 03:58:34;;;;;;;8.67;6.50;;;21.30;62.60;;;24.00;47.86;101869.34;5117364;28;20191;-58
2022/07/19 04:01:02;;;;;;;7.87;6.00;;;21.30;62.90;;;23.98;47.78;101877.66;5115300;28;20211;-59
2022/07/19 04:03:29;;;;;;;7.87;6.53;;;21.30;63.10;;;23.99;47.80;101879.28;5116658;28;20191;-59
2022/07/19 04:05:57;;;;;;;8.63;6.30;;;21.30;63.20;;;23.98;47.77;101866.91;5116857;28;20633;-58
2022/07/19 04:08:24;;;;;;;7.53;6.40;;;21.30;63.10;;;23.97;47.77;101873.31;5116579;28;20215;-58
2022/07/19 04:10:51;;;;;;;8.23;6.07;;;21.30;63.20;;;23.97;47.60;101878.72;5114649;28;20217;-58
2022/07/19 04:13:19;;;;;;;7.07;6.07;;;21.30;63.40;;;23.99;47.93;101879.28;5116499;28;20184;-58
2022/07/19 04:15:47;;;;;;;8.10;5.63;;;21.20;63.40;;;24.01;48.04;101877.16;5116949;28;20188;-58
2022/07/19 04:18:16;;;;;;;6.13;5.53;;;21.30;63.60;;;24.03;48.03;101875.06;5116775;28;20198;-58
2022/07/19 04:20:43;;;;;;;7.63;6.27;;;21.30;63.70;;;24.04;48.02;101867.81;5116281;28;20184;-59
2022/07/19 04:23:11;;;;;;;7.33;6.30;;;21.30;63.70;;;24.05;47.97;101872.97;5116817;28;20691;-57
2022/07/19 04:25:38;;;;;;;8.27;6.70;;;21.30;63.80;;;24.09;48.08;101879.53;5116666;28;20621;-58
2022/07/19 04:28:07;;;;;;;6.30;5.53;;;21.30;63.80;;;24.11;47.89;101877.44;5104241;28;20212;-59
2022/07/19 04:30:35;;;;;;;12.00;8.47;;;21.40;63.90;;;24.15;48.29;101878.59;5094581;28;20218;-59
2022/07/19 04:33:04;;;;;;;8.90;7.00;;;21.40;64.50;;;24.20;48.18;101875.19;5094640;28;20584;-58
2022/07/19 04:35:31;;;;;;;7.33;6.10;;;21.40;64.20;;;24.23;47.99;101880.94;5094660;28;20197;-58
2022/07/19 04:37:59;;;;;;;7.43;5.80;;;21.40;64.10;;;24.25;47.94;101882.56;5094538;28;20238;-58
2022/07/19 04:40:26;;;;;;;6.93;6.20;;;21.50;64.00;;;24.28;48.14;101882.09;5095239;28;20254;-58
2022/07/19 04:42:53;;;;;;;11.03;6.63;;;21.50;64.00;;;24.31;48.07;101884.31;5094318;28;20657;-59
2022/07/19 04:45:20;;;;;;;8.30;6.47;;;21.50;64.20;;;24.37;48.49;101886.88;5095694;28;20204;-59
2022/07/19 04:47:48;;;;;;;7.03;6.03;;;21.50;64.30;;;24.41;48.09;101887.22;5094123;28;20191;-59
2022/07/19 04:50:17;;;;;;;7.93;6.57;;;21.60;64.30;;;24.46;48.02;101885.44;5094431;28;20196;-59
2022/07/19 04:52:44;;;;;;;6.60;5.53;;;21.60;64.00;;;24.49;47.50;101884.97;5093799;28;20216;-59
2022/07/19 04:55:12;;;;;;;7.83;6.53;;;21.70;63.90;;;24.53;47.73;101883.41;5094839;28;20184;-57
2022/07/19 04:57:40;;;;;;;7.77;6.80;;;21.70;63.90;;;24.57;47.83;101881.09;5093927;28;20280;-58
2022/07/19 05:00:10;;;;;;;9.17;6.40;;;21.80;63.80;;;24.62;47.83;101878.50;5094945;28;20184;-58
2022/07/19 05:02:38;;;;;;;7.37;6.07;;;21.80;63.90;;;24.67;47.63;101875.91;5113492;28;20223;-61
2022/07/19 05:05:07;;;;;;;6.90;6.00;;;21.90;63.80;;;24.73;47.29;101874.94;5113826;28;20196;-58
2022/07/19 05:07:36;;;;;;;9.17;6.27;;;21.90;63.40;;;24.77;47.31;101870.75;5114382;28;20191;-57
2022/07/19 05:10:04;;;;;;;8.20;7.40;;;22.00;63.90;;;24.82;46.90;101868.13;5114261;28;20238;-60
2022/07/19 05:12:32;;;;;;;8.73;6.93;;;22.00;62.20;;;24.87;46.64;101870.94;5113991;28;20576;-60
2022/07/19 05:15:00;;;;;;;8.47;6.50;;;22.10;62.20;;;24.94;46.55;101868.09;5114325;28;20196;-60
2022/07/19 05:17:27;;;;;;;8.33;7.03;;;22.20;62.20;;;25.03;46.23;101872.84;5112754;28;20195;-59
2022/07/19 05:19:55;;;;;;;8.43;7.50;;;22.20;61.90;;;25.10;46.23;101868.13;5113938;28;20196;-58
2022/07/19 05:22:24;;;;;;;7.80;6.17;;;22.30;61.50;;;25.18;45.79;101869.59;5113871;28;20203;-59
2022/07/19 05:24:53;;;;;;;7.70;6.67;;;22.40;61.10;;;25.27;45.11;101876.25;5113857;28;20199;-59
2022/07/19 05:27:21;;;;;;;8.00;6.33;;;22.40;59.90;;;25.35;44.06;101878.53;5074144;28;1120646;-60
2022/07/19 05:29:49;;;;;;;7.00;6.00;;;22.50;59.30;;;25.44;44.18;101875.22;5114794;28;20211;-59
2022/07/19 05:32:17;;;;;;;7.40;6.53;;;22.60;59.20;;;25.51;43.38;101873.16;5114373;28;20207;-59
2022/07/19 05:34:44;;;;;;;9.03;6.97;;;22.70;57.90;;;25.58;43.10;101885.69;5113408;28;20196;-60
2022/07/19 05:37:12;;;;;;;9.03;6.43;;;22.80;57.20;;;25.64;42.17;101885.50;5113543;28;20200;-58
2022/07/19 05:39:39;;;;;;;7.27;6.07;;;22.80;56.80;;;25.68;42.00;101883.13;5114979;28;20203;-58
2022/07/19 05:42:08;;;;;;;8.83;7.93;;;22.90;56.70;;;25.74;41.81;101887.56;5113893;28;20211;-60
2022/07/19 05:44:36;;;;;;;8.67;7.00;;;23.00;56.40;;;25.81;41.56;101882.78;5115443;28;20281;-59
2022/07/19 05:47:03;;;;;;;8.30;6.53;;;23.00;56.30;;;25.87;41.69;101887.19;5114618;28;20671;-57
2022/07/19 05:49:30;;;;;;;9.20;6.37;;;23.10;56.30;;;25.95;42.25;101884.09;5113347;28;20212;-60
2022/07/19 05:51:58;;;;;;;8.97;6.10;;;23.20;56.30;;;26.04;41.57;101883.41;5113582;28;20203;-60
2022/07/19 05:54:25;;;;;;;8.23;7.43;;;23.30;56.30;;;26.12;41.40;101884.91;5114406;28;20270;-60
2022/07/19 05:56:54;;;;;;;9.23;5.70;;;23.30;56.20;;;26.19;41.20;101880.97;5114541;28;20184;-59
2022/07/19 05:59:22;;;;;;;10.47;5.70;;;23.40;56.10;;;26.28;41.69;101881.34;5113180;28;20177;-59
2022/07/19 06:01:50;;;;;;;8.87;6.23;;;23.50;55.90;;;26.35;41.23;101884.66;5114115;28;20217;-59
2022/07/19 06:04:18;;;;;;;7.87;5.93;;;23.50;55.60;;;26.42;40.90;101882.59;5114525;28;20180;-59
2022/07/19 06:06:45;;;;;;;8.57;6.07;;;23.60;55.40;;;26.50;40.55;101887.56;5112403;28;20219;-58
2022/07/19 06:09:13;;;;;;;6.10;5.50;;;23.70;55.20;;;26.61;40.88;101888.47;5114312;28;20648;-60
2022/07/19 06:11:40;;;;;;;8.37;5.63;;;23.70;55.00;;;26.70;40.55;101893.19;5113669;28;20290;-61
2022/07/19 06:14:09;;;;;;;6.90;5.23;;;23.80;54.80;;;26.80;39.62;101900.63;5113832;28;20180;-58
2022/07/19 06:16:40;;;;;;;5.87;5.13;;;23.90;54.20;;;26.85;39.18;101896.09;5113731;28;20578;-61
2022/07/19 06:19:10;;;;;;;7.33;5.10;;;24.00;53.00;;;26.90;39.00;101889.94;5114029;28;20234;-58
2022/07/19 06:21:38;;;;;;;5.97;5.37;;;24.10;53.00;;;26.99;38.89;101896.50;5114056;28;20577;-60
2022/07/19 06:24:05;;;;;;;6.07;4.90;;;24.20;52.40;;;27.09;38.20;101890.38;5111870;28;20191;-60
2022/07/19 06:26:33;;;;;;;5.10;4.47;;;24.30;52.20;;;27.16;37.90;101891.00;5114049;28;20191;-60
2022/07/19 06:29:00;;;;;;;5.67;5.13;;;24.40;51.50;;;27.23;37.59;101887.00;5113331;28;20203;-60
2022/07/19 06:31:27;;;;;;;6.07;4.30;;;24.40;51.10;;;27.31;37.45;101880.31;5113296;28;20214;-60
2022/07/19 06:33:56;;;;;;;5.73;4.83;;;24.50;51.00;;;27.39;37.06;101890.69;5113799;28;20188;-58
2022/07/19 06:36:24;;;;;;;7.80;4.97;;;24.60;50.70;;;27.48;37.78;101881.03;5112930;28;20226;-60
2022/07/19 06:38:51;;;;;;;7.90;5.50;;;24.70;50.80;;;27.55;37.38;101888.94;5113777;28;20199;-60
2022/07/19 06:41:19;;;;;;;8.57;5.20;;;24.80;50.50;;;27.64;37.16;101888.19;5111728;28;20216;-59
2022/07/19 06:43:46;;;;;;;5.23;4.50;;;24.90;50.60;;;27.75;37.30;101898.00;5113543;28;20613;-59
2022/07/19 06:46:13;;;;;;;5.70;4.83;;;25.00;50.60;;;27.89;37.18;101877.53;5113574;28;20192;-57
2022/07/19 06:48:41;;;;;;;4.60;4.20;;;25.10;50.50;;;28.00;36.56;101881.16;5113315;28;20672;-60
2022/07/19 06:51:09;;;;;;;5.20;4.30;;;25.20;49.50;;;28.08;36.16;101876.03;5112931;28;20207;-56
2022/07/19 06:53:37;;;;;;;5.57;4.10;;;25.20;49.00;;;28.17;35.86;101881.75;5113567;28;20187;-59
2022/07/19 06:56:05;;;;;;;6.13;4.40;;;25.40;48.60;;;28.28;35.44;101883.47;5093692;28;20204;-61
2022/07/19 06:58:33;;;;;;;4.77;4.37;;;25.50;48.10;;;28.41;35.67;101882.16;5092793;28;20184;-60
2022/07/19 07:01:08;;;;;;;7.07;3.80;;;25.60;48.60;;;28.53;35.59;101875.41;5092582;28;20212;-60
2022/07/19 07:03:36;;;;;;;6.33;4.53;;;25.70;48.30;;;28.64;35.35;101881.75;5093494;28;20200;-60
2022/07/19 07:06:04;;;;;;;4.47;4.00;;;25.80;48.00;;;28.76;35.36;101879.59;5093092;28;20188;-59
2022/07/19 07:08:33;;;;;;;7.33;4.87;;;25.90;48.20;;;28.91;35.21;101887.75;5092564;28;20577;-60
2022/07/19 07:11:01;;;;;;;5.77;4.53;;;26.00;47.90;;;29.04;35.09;101881.81;5097369;28;20192;-61
2022/07/19 07:13:29;;;;;;;5.03;4.53;;;26.20;47.50;;;29.12;34.46;101875.84;5113058;28;20653;-60
2022/07/19 07:15:56;;;;;;;4.87;4.37;;;26.30;46.80;;;29.23;34.46;101866.69;5113133;28;20559;-60
2022/07/19 07:18:24;;;;;;;4.93;3.97;;;26.40;47.00;;;29.31;34.17;101871.53;5112940;28;20202;-58
2022/07/19 07:20:51;;;;;;;5.17;4.20;;;26.50;46.20;;;29.36;33.94;101868.84;5112724;28;20211;-58
2022/07/19 07:23:19;;;;;;;5.60;3.43;;;26.60;45.80;;;29.41;33.75;101868.03;5113148;28;20232;-59
2022/07/19 07:25:48;;;;;;;5.20;4.40;;;26.70;45.60;;;29.52;33.43;101875.88;5106972;28;20202;-59
2022/07/19 07:28:15;;;;;;;4.63;3.80;;;26.80;45.40;;;29.61;32.93;101870.72;5092142;28;20211;-58
2022/07/19 07:30:49;;;;;;;5.00;4.00;;;26.90;44.30;;;29.71;33.08;101870.72;5092035;28;20256;-59
2022/07/19 07:33:17;;;;;;;4.77;4.07;;;27.00;44.60;;;29.86;32.80;101873.41;5091907;28;20184;-58
2022/07/19 07:35:44;;;;;;;5.40;4.23;;;27.10;44.60;;;30.00;32.87;101868.25;5092525;28;20621;-58
2022/07/19 07:38:12;;;;;;;5.20;3.73;;;27.20;44.90;;;30.17;33.55;101871.44;5091317;28;20541;-58
2022/07/19 07:40:43;;;;;;;7.03;4.07;;;27.30;45.20;;;30.35;32.94;101870.84;5106486;28;20184;-60
2022/07/19 07:43:12;;;;;;;5.93;3.97;;;27.50;45.30;;;30.49;32.05;101868.34;5112835;28;20294;-60
2022/07/19 07:45:39;;;;;;;5.93;4.10;;;27.60;42.80;;;30.59;31.95;101866.41;5112373;28;20195;-58
2022/07/19 07:48:07;;;;;;;4.83;3.73;;;27.70;43.30;;;30.74;32.58;101869.00;5112402;28;20191;-61
2022/07/19 07:50:34;;;;;;;4.57;4.10;;;27.90;43.90;;;30.90;31.68;101872.50;5112399;28;20710;-58
2022/07/19 07:53:02;;;;;;;4.40;4.00;;;28.00;43.20;;;31.03;32.04;101866.41;5112559;28;20219;-60
2022/07/19 07:55:29;;;;;;;4.17;3.67;;;28.10;43.10;;;31.19;31.38;101869.84;5111059;28;20203;-57
2022/07/19 07:57:57;;;;;;;4.13;3.83;;;28.30;43.50;;;31.34;31.77;101866.97;5111326;28;20207;-59
2022/07/19 08:00:27;;;;;;;4.00;3.70;;;28.40;42.80;;;31.47;31.53;101855.47;5112093;28;20715;-59
2022/07/19 08:02:54;;;;;;;8.13;5.43;;;28.50;42.50;;;31.61;31.00;101859.13;5112411;28;20211;-59
2022/07/19 08:05:22;;;;;;;5.10;4.60;;;28.60;42.20;;;31.72;30.68;101863.38;5112387;28;20558;-61
2022/07/19 08:07:50;;;;;;;5.70;5.10;;;28.70;41.60;;;31.86;30.16;101858.03;5112825;28;20653;-59
2022/07/19 08:10:23;;;;;;;5.13;4.13;;;28.90;41.00;;;31.99;29.69;101860.94;5112295;28;20548;-59
2022/07/19 08:12:51;;;;;;;5.60;5.07;;;29.00;40.20;;;32.41;29.83;101848.41;5100804;28;20262;-56
2022/07/19 08:15:19;;;;;;;5.43;4.20;;;29.20;40.60;;;33.23;28.75;101844.22;5091652;28;20200;-58
2022/07/19 08:17:48;;;;;;;6.60;4.90;;;29.50;39.80;;;34.38;27.69;101849.38;5092318;28;20568;-57
2022/07/19 08:20:16;;;;;;;6.63;4.43;;;29.90;39.80;;;35.62;25.89;101834.88;5095726;28;20192;-60
2022/07/19 08:22:45;;;;;;;6.45;4.47;;;30.50;39.30;;;36.79;24.20;101835.81;5094031;28;20214;-59
2022/07/19 08:25:16;;;;;;;5.03;4.20;;;31.30;37.30;;;37.70;22.71;101827.22;5095787;28;20192;-59
2022/07/19 08:27:44;;;;;;;4.78;4.22;;;32.00;33.70;;;38.50;21.22;101835.19;5095560;28;20218;-59
2022/07/19 08:30:13;;;;;;;5.03;4.18;;;32.80;32.30;;;39.19;20.77;101829.09;5114666;28;20678;-59
2022/07/19 08:32:41;;;;;;;4.70;4.30;;;33.40;31.40;;;39.72;20.23;101828.97;5114528;28;20214;-60
2022/07/19 08:35:10;;;;;;;6.03;4.97;;;34.10;30.20;;;40.38;19.51;101842.47;5115714;28;20180;-60
2022/07/19 08:37:38;;;;;;;4.78;4.30;;;34.70;29.40;;;41.01;18.91;101833.28;5115450;28;20199;-59
2022/07/19 08:40:07;;;;;;;4.85;4.05;;;35.30;28.90;;;41.67;17.88;101827.91;5115595;28;20200;-58
2022/07/19 08:42:35;;;;;;;5.30;4.00;;;35.80;27.50;;;41.85;17.24;101828.34;5115536;28;20512;-59
2022/07/19 08:45:07;;;;;;;4.45;4.05;;;36.30;25.90;;;41.65;17.53;101824.66;5114087;28;20192;-59
2022/07/19 08:47:35;;;;;;;6.95;4.32;;;36.60;25.70;;;41.44;16.98;101828.91;5115772;28;20346;-60
2022/07/19 08:50:07;;;;;;;5.13;3.70;;;36.80;25.10;;;41.40;17.98;101828.00;5115081;28;20216;-59
2022/07/19 08:52:36;;;;;;;5.18;3.78;;;36.80;25.40;;;41.70;17.93;101826.38;5115222;28;20204;-60
2022/07/19 08:55:06;;;;;;;4.53;4.13;;;37.00;25.60;;;42.05;16.78;101821.69;5115407;28;20188;-58
2022/07/19 09:00:20;;;;;;;4.30;3.97;;;37.40;24.50;;;42.75;16.30;101821.63;5115956;28;20192;-59
2022/07/19 09:02:56;;;;;;;4.47;3.83;;;37.60;24.30;;;43.27;15.83;101821.03;5102124;28;20698;-59
2022/07/19 09:05:24;;;;;;;3.63;3.33;;;37.90;23.80;;;43.62;15.30;101827.19;5095309;28;20192;-59
2022/07/19 09:08:10;;;;;;;4.65;3.50;;;38.10;23.10;;;44.17;15.37;101825.69;5110190;28;20191;-59
2022/07/19 09:10:40;;;;;;;4.72;3.17;;;38.50;23.10;;;44.58;14.98;101824.63;5094898;28;20210;-59
2022/07/19 09:13:11;;;;;;;3.53;3.22;;;38.90;23.10;;;45.17;14.79;101826.44;5094738;28;20204;-60
2022/07/19 09:15:46;;;;;;;3.80;3.40;;;39.20;22.90;;;45.69;14.21;101828.13;5094893;28;20201;-59
2022/07/19 09:18:18;;;;;;;5.43;3.17;;;39.60;22.50;;;45.99;13.63;101831.53;5098305;28;20213;-57
2022/07/19 09:20:48;;;;;;;5.85;3.60;;;40.00;21.40;;;46.30;13.92;101818.94;5106393;28;20198;-59
2022/07/19 09:23:18;;;;;;;3.33;3.03;;;40.30;21.80;;;46.78;12.99;101816.75;5094750;28;20204;-60
2022/07/19 09:25:49;;;;;;;3.35;3.05;;;40.70;21.50;;;47.26;13.26;101815.25;5095314;28;20192;-58
2022/07/19 09:28:18;;;;;;;2.92;2.70;;;41.00;21.60;;;47.59;12.77;101823.22;5094085;28;20200;-58
2022/07/19 09:30:48;;;;;;;4.97;3.65;;;41.30;20.80;;;47.67;12.89;101823.97;5094362;28;20699;-58
2022/07/19 09:33:19;;;;;;;3.78;3.13;;;41.50;21.40;;;47.90;12.85;101817.97;5093294;28;20637;-59
2022/07/19 09:35:50;;;;;;;3.40;3.10;;;41.80;21.00;;;48.14;12.48;101820.69;5107648;28;20567;-59
2022/07/19 09:38:25;;;;;;;3.83;3.25;;;42.00;20.40;;;48.62;12.67;101811.72;5114768;28;20184;-60
2022/07/19 09:41:07;;;;;;;3.95;3.65;;;42.30;20.40;;;48.87;11.78;101823.56;5114277;28;20556;-59
2022/07/19 09:43:53;;;;;;;6.88;3.67;;;42.50;20.00;;;48.83;11.34;101817.19;5114766;28;20240;-60
2022/07/19 09:46:32;;;;;;;4.10;3.20;;;42.70;19.40;;;48.62;11.64;101803.34;5114792;28;20190;-61
2022/07/19 09:49:06;;;;;;;3.03;2.83;;;42.70;18.90;;;48.59;11.42;101807.75;5114795;28;20195;-58
2022/07/19 09:51:35;;;;;;;4.10;3.67;;;42.80;18.70;;;48.73;11.03;101801.25;5107168;28;20553;-60
2022/07/19 09:54:07;;;;;;;3.88;3.28;;;42.80;18.30;;;48.73;11.38;101802.06;5094270;28;20192;-60
2022/07/19 09:56:37;;;;;;;4.00;2.97;;;42.80;18.60;;;48.84;10.81;101797.19;5113948;28;20214;-60
2022/07/19 09:59:06;;;;;;;4.70;3.47;;;42.90;18.20;;;49.03;11.61;101795.03;5114210;27;20277;-60
2022/07/19 10:01:35;;;;;;;3.80;3.00;;;43.00;18.40;;;49.07;11.01;101807.03;5113815;28;20286;-60
2022/07/19 10:04:07;;;;;;;3.97;2.80;;;43.10;18.00;;;49.20;11.01;101796.94;5114262;28;20635;-61
2022/07/19 10:06:35;;;;;;;3.17;2.95;;;43.10;17.60;;;49.23;9.82;101801.72;5114718;28;20271;-60
2022/07/19 10:09:07;;;;;;;4.13;2.90;;;43.20;17.00;;;49.10;10.16;101797.78;5112635;28;20230;-59
2022/07/19 10:11:36;;;;;;;3.67;2.60;;;43.10;17.00;;;49.22;10.43;101794.50;5114080;28;20223;-60
2022/07/19 10:14:05;;;;;;;2.67;2.47;;;43.30;17.60;;;49.52;10.53;101786.22;5114156;28;20192;-60
2022/07/19 10:16:49;;;;;;;3.67;2.50;;;43.30;17.10;;;49.53;10.29;101787.84;5113998;28;20184;-61
2022/07/19 10:19:22;;;;;;;2.85;2.40;;;43.40;17.00;;;49.70;9.84;101783.25;5113873;28;20199;-58
2022/07/19 10:21:51;;;;;;;2.53;2.33;;;43.40;16.50;;;49.68;9.27;101778.06;5110513;28;20204;-59